createdAt,value
2018-12-14T00:01:51.401Z,14.10
2018-12-14T00:04:21.275Z,13.87
2018-12-14T00:06:51.172Z,14.17
2018-12-14T00:09:21.043Z,11.20
2018-12-14T00:11:50.939Z,12.67
2018-12-14T00:14:20.953Z,12.37
2018-12-14T00:16:50.953Z,13.70
2018-12-14T00:19:20.826Z,13.00
2018-12-14T00:21:50.661Z,13.60
2018-12-14T00:24:20.533Z,14.17
2018-12-14T00:26:50.531Z,13.70
2018-12-14T00:29:20.340Z,13.73
2018-12-14T00:31:51.302Z,14.43
2018-12-14T00:34:21.257Z,13.63
2018-12-14T00:36:51.088Z,14.43
2018-12-14T00:39:21.205Z,14.80
2018-12-14T00:41:52.066Z,14.23
2018-12-14T00:44:22.565Z,13.77
2018-12-14T00:46:52.877Z,14.70
2018-12-14T00:49:22.829Z,14.70
2018-12-14T00:51:52.589Z,13.63
2018-12-14T00:54:23.285Z,15.27
2018-12-14T00:56:53.445Z,14.07
2018-12-14T00:59:23.493Z,14.93
2018-12-14T01:01:53.381Z,14.20
2018-12-14T01:04:23.215Z,14.70
2018-12-14T01:06:53.015Z,14.17
2018-12-14T01:09:22.814Z,15.07
2018-12-14T01:11:58.238Z,15.80
2018-12-14T01:14:25.049Z,14.33
2018-12-14T01:16:56.062Z,16.03
2018-12-14T01:19:25.903Z,15.20
2018-12-14T01:21:55.733Z,15.47
2018-12-14T01:24:25.764Z,14.80
2018-12-14T01:26:55.579Z,15.37
2018-12-14T01:29:25.581Z,15.33
2018-12-14T01:35:31.801Z,16.20
2018-12-14T01:38:02.247Z,13.10
2018-12-14T01:40:32.124Z,11.63
2018-12-14T01:43:02.163Z,14.37
2018-12-14T01:45:31.939Z,16.10
2018-12-14T01:48:01.891Z,16.50
2018-12-14T01:50:31.667Z,16.30
2018-12-14T01:53:01.471Z,15.20
2018-12-14T01:55:31.283Z,16.37
2018-12-14T01:58:01.707Z,15.27
2018-12-14T02:00:31.823Z,16.33
2018-12-14T02:03:01.589Z,15.87
2018-12-14T02:05:31.336Z,16.07
2018-12-14T02:08:01.091Z,17.30
2018-12-14T02:10:30.837Z,17.63
2018-12-14T02:13:01.041Z,16.60
2018-12-14T02:15:30.804Z,16.83
2018-12-14T02:18:00.601Z,17.30
2018-12-14T02:20:30.396Z,17.67
2018-12-14T02:23:00.207Z,18.47
2018-12-14T02:25:30.071Z,17.50
2018-12-14T02:27:59.875Z,18.93
2018-12-14T02:30:48.513Z,18.63
2018-12-14T02:33:18.289Z,18.07
2018-12-14T02:35:48.525Z,15.90
2018-12-14T02:38:19.039Z,18.60
2018-12-14T02:40:48.837Z,17.87
2018-12-14T02:43:21.840Z,19.23
2018-12-14T02:45:51.667Z,17.80
2018-12-14T02:48:22.487Z,17.30
2018-12-14T02:50:52.519Z,18.63
2018-12-14T02:53:22.553Z,18.13
2018-12-14T02:55:52.759Z,17.53
2018-12-14T02:58:22.651Z,18.57
2018-12-14T03:00:52.480Z,17.57
2018-12-14T03:03:22.315Z,16.70
2018-12-14T03:05:52.438Z,16.60
2018-12-14T03:08:22.178Z,17.57
2018-12-14T03:14:27.764Z,17.57
2018-12-14T03:16:58.554Z,18.40
2018-12-14T03:19:28.347Z,19.50
2018-12-14T03:21:58.134Z,18.73
2018-12-14T03:24:27.944Z,18.33
2018-12-14T03:26:57.948Z,18.60
2018-12-14T03:29:28.178Z,17.20
2018-12-14T03:31:57.994Z,18.63
2018-12-14T03:34:28.234Z,18.33
2018-12-14T03:36:58.690Z,18.80
2018-12-14T03:39:28.982Z,19.07
2018-12-14T03:41:58.771Z,17.40
2018-12-14T03:44:28.602Z,18.90
2018-12-14T03:46:58.402Z,17.73
2018-12-14T03:49:28.169Z,18.20
2018-12-14T03:51:58.109Z,17.90
2018-12-14T03:54:27.853Z,18.10
2018-12-14T03:56:58.003Z,17.70
2018-12-14T03:59:28.093Z,19.27
2018-12-14T04:01:57.857Z,16.23
2018-12-14T04:04:27.644Z,18.53
2018-12-14T04:06:57.421Z,17.77
2018-12-14T04:09:27.560Z,17.53
2018-12-14T04:11:57.330Z,17.93
2018-12-14T04:14:27.175Z,16.53
2018-12-14T04:16:56.946Z,18.23
2018-12-14T04:19:27.046Z,18.87
2018-12-14T04:21:56.820Z,19.40
2018-12-14T04:24:26.642Z,18.60
2018-12-14T04:26:56.476Z,18.80
2018-12-14T04:29:26.254Z,19.77
2018-12-14T04:31:56.090Z,19.37
2018-12-14T04:34:25.860Z,17.13
2018-12-14T04:36:55.633Z,18.90
2018-12-14T04:39:25.449Z,18.93
2018-12-14T04:41:55.254Z,19.43
2018-12-14T04:44:25.026Z,19.10
2018-12-14T04:46:55.339Z,17.20
2018-12-14T04:49:26.142Z,20.27
2018-12-14T04:51:55.878Z,21.17
2018-12-14T04:54:26.665Z,20.43
2018-12-14T04:56:56.462Z,18.27
2018-12-14T04:59:26.552Z,19.50
2018-12-14T05:01:56.614Z,19.97
2018-12-14T05:04:26.389Z,18.73
2018-12-14T05:06:56.642Z,20.47
2018-12-14T05:09:27.572Z,20.23
2018-12-14T05:11:57.373Z,20.80
2018-12-14T05:14:28.104Z,22.60
2018-12-14T05:16:57.858Z,19.47
2018-12-14T05:19:27.696Z,18.47
2018-12-14T05:21:58.158Z,19.30
2018-12-14T05:24:27.977Z,18.73
2018-12-14T05:26:58.571Z,19.17
2018-12-14T05:29:28.692Z,18.50
2018-12-14T05:31:58.555Z,17.40
2018-12-14T05:35:22.339Z,18.13
2018-12-14T05:37:52.466Z,16.57
2018-12-14T05:40:22.198Z,18.37
2018-12-14T05:42:51.978Z,17.23
2018-12-14T05:45:21.752Z,17.20
2018-12-14T05:47:52.194Z,17.33
2018-12-14T05:50:22.042Z,17.50
2018-12-14T05:52:51.870Z,17.70
2018-12-14T05:55:22.190Z,19.60
2018-12-14T05:57:51.960Z,16.37
2018-12-14T06:00:22.226Z,17.83
2018-12-14T06:02:52.018Z,17.77
2018-12-14T06:05:21.810Z,16.17
2018-12-14T06:07:51.613Z,17.40
2018-12-14T06:10:21.388Z,17.27
2018-12-14T06:12:51.189Z,16.17
2018-12-14T06:15:21.364Z,17.50
2018-12-14T06:17:51.720Z,16.90
2018-12-14T06:20:21.484Z,18.17
2018-12-14T06:22:51.287Z,18.70
2018-12-14T06:25:21.182Z,17.40
2018-12-14T06:27:51.628Z,15.87
2018-12-14T06:30:21.406Z,17.33
2018-12-14T06:32:51.238Z,18.23
2018-12-14T06:35:21.024Z,17.20
2018-12-14T06:37:50.914Z,16.13
2018-12-14T06:40:21.300Z,17.10
2018-12-14T06:42:51.157Z,14.03
2018-12-14T06:45:21.013Z,16.03
2018-12-14T06:47:50.856Z,16.53
2018-12-14T06:50:21.483Z,16.83
2018-12-14T06:52:51.993Z,17.27
2018-12-14T06:55:21.816Z,16.43
2018-12-14T06:57:51.660Z,15.40
2018-12-14T07:00:21.482Z,16.43
2018-12-14T07:02:51.306Z,15.47
2018-12-14T07:05:22.004Z,16.00
2018-12-14T07:07:51.806Z,17.10
2018-12-14T07:10:21.823Z,17.27
2018-12-14T07:12:51.590Z,15.67
2018-12-14T07:15:21.462Z,15.93
2018-12-14T07:17:51.308Z,15.73
2018-12-14T07:20:21.112Z,16.07
2018-12-14T07:22:50.845Z,12.63
2018-12-14T07:25:20.681Z,14.67
2018-12-14T07:27:50.596Z,16.40
2018-12-14T07:30:20.497Z,15.67
2018-12-14T07:32:50.606Z,15.00
2018-12-14T07:35:20.347Z,14.40
2018-12-14T07:37:50.945Z,15.87
2018-12-14T07:40:21.044Z,14.13
2018-12-14T07:42:50.912Z,16.97
2018-12-14T07:45:20.825Z,16.20
2018-12-14T07:47:50.908Z,16.43
2018-12-14T07:50:20.986Z,13.40
2018-12-14T07:52:51.174Z,14.67
2018-12-14T07:55:21.024Z,16.40
2018-12-14T07:57:50.831Z,16.37
2018-12-14T08:00:20.690Z,14.23
2018-12-14T08:02:50.513Z,12.73
2018-12-14T08:05:20.371Z,14.20
2018-12-14T08:07:50.130Z,10.17
2018-12-14T08:10:19.987Z,14.53
2018-12-14T08:12:50.538Z,16.87
2018-12-14T08:15:20.639Z,18.13
2018-12-14T08:17:50.375Z,15.70
2018-12-14T08:20:20.118Z,16.00
2018-12-14T08:22:49.935Z,16.17
2018-12-14T08:25:19.733Z,16.20
2018-12-14T08:27:49.521Z,16.00
2018-12-14T08:30:19.359Z,15.33
2018-12-14T08:32:49.132Z,14.47
2018-12-14T08:35:19.338Z,11.13
2018-12-14T08:37:49.105Z,16.23
2018-12-14T08:40:19.354Z,15.87
2018-12-14T08:42:49.171Z,16.20
2018-12-14T08:45:19.169Z,14.70
2018-12-14T08:47:49.264Z,16.27
2018-12-14T08:50:19.025Z,15.33
2018-12-14T08:52:48.782Z,15.93
2018-12-14T08:55:18.531Z,16.20
2018-12-14T08:57:48.355Z,15.70
2018-12-14T09:00:18.136Z,15.80
2018-12-14T09:02:48.154Z,15.13
2018-12-14T09:05:17.924Z,15.57
2018-12-14T09:07:47.712Z,14.40
2018-12-14T09:10:17.566Z,16.07
2018-12-14T09:12:47.594Z,15.27
2018-12-14T09:15:17.403Z,15.50
2018-12-14T09:17:47.220Z,15.23
2018-12-14T09:20:17.546Z,14.97
2018-12-14T09:22:48.413Z,14.63
2018-12-14T09:25:18.204Z,14.23
2018-12-14T09:27:47.990Z,13.60
2018-12-14T09:30:17.770Z,13.37
2018-12-14T09:32:47.746Z,12.50
2018-12-14T09:35:17.540Z,13.97
2018-12-14T09:37:47.370Z,12.50
2018-12-14T09:40:17.670Z,14.87
2018-12-14T09:42:47.426Z,13.77
2018-12-14T09:45:17.254Z,11.63
2018-12-14T09:47:47.256Z,15.27
2018-12-14T09:50:17.494Z,10.60
2018-12-14T09:52:47.914Z,14.40
2018-12-14T09:55:17.802Z,15.10
2018-12-14T09:57:47.567Z,15.23
2018-12-14T10:00:17.560Z,14.67
2018-12-14T10:02:47.638Z,14.73
2018-12-14T10:05:17.554Z,15.97
2018-12-14T10:07:47.600Z,14.73
2018-12-14T10:10:17.419Z,13.60
2018-12-14T10:12:47.252Z,13.27
2018-12-14T10:15:17.038Z,13.80
2018-12-14T10:17:46.930Z,14.57
2018-12-14T10:20:16.766Z,14.40
2018-12-14T10:22:46.652Z,13.83
2018-12-14T10:25:16.438Z,15.07
2018-12-14T10:27:46.202Z,14.63
2018-12-14T10:30:16.000Z,15.20
2018-12-14T10:32:45.761Z,15.37
2018-12-14T10:35:15.549Z,14.63
2018-12-14T10:37:46.156Z,13.20
2018-12-14T10:40:15.928Z,15.00
2018-12-14T10:42:45.696Z,15.57
2018-12-14T10:45:15.471Z,13.27
2018-12-14T10:47:45.582Z,15.10
2018-12-14T10:50:15.496Z,16.03
2018-12-14T10:52:45.250Z,15.47
2018-12-14T10:55:15.053Z,14.60
2018-12-14T10:57:45.639Z,13.80
2018-12-14T11:00:23.394Z,14.47
2018-12-14T11:02:53.248Z,14.23
2018-12-14T11:05:23.088Z,14.43
2018-12-14T11:07:52.898Z,12.93
2018-12-14T11:10:22.983Z,14.60
2018-12-14T11:12:53.054Z,14.70
2018-12-14T11:15:22.866Z,15.03
2018-12-14T11:17:52.656Z,12.63
2018-12-14T11:20:22.536Z,15.20
2018-12-14T11:22:52.714Z,11.00
2018-12-14T11:25:22.777Z,14.17
2018-12-14T11:27:52.650Z,12.77
2018-12-14T11:30:22.425Z,15.13
2018-12-14T11:32:52.596Z,16.00
2018-12-14T11:35:22.441Z,14.30
2018-12-14T11:37:53.094Z,14.83
2018-12-14T11:40:23.304Z,15.53
2018-12-14T11:42:53.130Z,14.67
2018-12-14T11:45:22.869Z,14.27
2018-12-14T11:47:52.978Z,14.77
2018-12-14T11:50:22.756Z,14.00
2018-12-14T11:52:53.126Z,13.47
2018-12-14T11:55:22.981Z,13.30
2018-12-14T11:57:52.781Z,14.13
2018-12-14T12:03:58.104Z,15.57
2018-12-14T12:06:27.917Z,14.93
2018-12-14T12:08:57.653Z,12.73
2018-12-14T12:11:27.794Z,12.30
2018-12-14T12:13:57.626Z,12.63
2018-12-14T12:16:27.382Z,13.97
2018-12-14T12:18:57.164Z,14.53
2018-12-14T12:21:28.269Z,13.63
2018-12-14T12:23:58.220Z,15.67
2018-12-14T12:26:28.005Z,15.73
2018-12-14T12:28:57.777Z,14.63
2018-12-14T12:31:27.769Z,14.57
2018-12-14T12:33:58.228Z,14.13
2018-12-14T12:36:28.066Z,14.13
2018-12-14T12:38:57.876Z,14.17
2018-12-14T12:41:28.097Z,14.67
2018-12-14T12:43:57.864Z,14.00
2018-12-14T12:46:27.698Z,14.13
2018-12-14T12:48:57.946Z,13.30
2018-12-14T12:51:29.098Z,14.53
2018-12-14T12:53:58.953Z,14.10
2018-12-14T12:56:29.112Z,14.90
2018-12-14T12:58:59.294Z,14.23
2018-12-14T13:01:29.056Z,11.53
2018-12-14T13:03:59.146Z,14.27
2018-12-14T13:06:29.042Z,15.23
2018-12-14T13:08:59.158Z,13.53
2018-12-14T13:11:28.982Z,11.70
2018-12-14T13:13:58.729Z,13.80
2018-12-14T13:16:28.577Z,12.73
2018-12-14T13:18:58.413Z,14.50
2018-12-14T13:21:28.172Z,13.43
2018-12-14T13:23:58.040Z,13.87
2018-12-14T13:26:27.888Z,12.57
2018-12-14T13:28:57.746Z,14.03
2018-12-14T13:31:27.798Z,14.57
2018-12-14T13:33:57.556Z,12.93
2018-12-14T13:36:27.672Z,14.10
2018-12-14T13:38:57.490Z,14.73
2018-12-14T13:41:27.857Z,13.20
2018-12-14T13:43:57.902Z,13.13
2018-12-14T13:46:28.155Z,14.13
2018-12-14T13:49:02.768Z,13.47
2018-12-14T13:51:29.953Z,14.97
2018-12-14T13:53:59.714Z,12.50
2018-12-14T13:56:29.468Z,13.40
2018-12-14T13:58:59.264Z,12.00
2018-12-14T14:01:29.018Z,14.50
2018-12-14T14:03:59.227Z,14.10
2018-12-14T14:06:29.250Z,13.13
2018-12-14T14:08:59.269Z,12.30
2018-12-14T14:11:29.506Z,13.67
2018-12-14T14:13:59.262Z,12.83
2018-12-14T14:16:29.021Z,14.63
2018-12-14T14:18:58.759Z,13.43
2018-12-14T14:21:29.257Z,12.70
2018-12-14T14:23:59.436Z,13.03
2018-12-14T14:26:29.277Z,12.60
2018-12-14T14:28:59.038Z,14.27
2018-12-14T14:31:28.799Z,13.77
2018-12-14T14:33:58.584Z,14.50
2018-12-14T14:36:28.363Z,13.60
2018-12-14T14:38:59.057Z,14.10
2018-12-14T14:41:29.055Z,14.17
2018-12-14T14:43:58.799Z,13.77
2018-12-14T14:46:28.799Z,13.90
2018-12-14T14:48:58.551Z,13.20
2018-12-14T14:51:28.895Z,13.13
2018-12-14T14:53:58.667Z,14.20
2018-12-14T14:56:28.761Z,13.80
2018-12-14T14:58:58.486Z,14.73
2018-12-14T15:01:28.238Z,13.87
2018-12-14T15:03:57.968Z,13.37
2018-12-14T15:06:27.765Z,14.00
2018-12-14T15:08:58.311Z,14.30
2018-12-14T15:11:28.065Z,14.80
2018-12-14T15:13:57.825Z,15.03
2018-12-14T15:16:27.661Z,14.43
2018-12-14T15:18:57.417Z,12.67
2018-12-14T15:21:27.531Z,13.10
2018-12-14T15:23:57.661Z,14.13
2018-12-14T15:26:27.599Z,14.17
2018-12-14T15:28:57.386Z,14.30
2018-12-14T15:31:27.714Z,14.33
2018-12-14T15:33:57.465Z,15.47
2018-12-14T15:36:27.215Z,14.40
2018-12-14T15:38:57.409Z,13.93
2018-12-14T15:41:27.150Z,14.63
2018-12-14T15:43:57.010Z,13.17
2018-12-14T15:46:26.784Z,14.43
2018-12-14T15:48:56.562Z,13.97
2018-12-14T15:51:26.606Z,14.57
2018-12-14T15:53:56.759Z,13.23
2018-12-14T15:56:26.530Z,14.40
2018-12-14T15:58:56.362Z,15.17
2018-12-14T16:01:26.573Z,15.50
2018-12-14T16:03:56.346Z,15.47
2018-12-14T16:06:26.184Z,14.87
2018-12-14T16:08:56.360Z,13.60
2018-12-14T16:11:26.538Z,14.03
2018-12-14T16:13:56.322Z,14.33
2018-12-14T16:16:26.101Z,13.83
2018-12-14T16:18:56.250Z,15.47
2018-12-14T16:21:26.890Z,13.80
2018-12-14T16:23:56.942Z,14.20
2018-12-14T16:26:26.920Z,13.47
2018-12-14T16:28:57.028Z,13.80
2018-12-14T16:31:26.822Z,14.37
2018-12-14T16:33:56.616Z,14.70
2018-12-14T16:36:26.862Z,13.70
2018-12-14T16:38:57.371Z,13.67
2018-12-14T16:41:27.251Z,13.83
2018-12-14T16:43:57.058Z,13.80
2018-12-14T16:46:26.810Z,14.37
2018-12-14T16:48:56.574Z,15.00
2018-12-14T16:51:26.793Z,15.07
2018-12-14T16:54:03.050Z,15.10
2018-12-14T16:56:33.587Z,15.00
2018-12-14T16:59:04.254Z,15.47
2018-12-14T17:01:34.337Z,15.63
2018-12-14T17:04:04.339Z,15.00
2018-12-14T17:06:34.233Z,15.00
2018-12-14T17:09:05.141Z,14.83
2018-12-14T17:11:35.307Z,15.07
2018-12-14T17:14:05.591Z,15.10
2018-12-14T17:16:35.423Z,15.13
2018-12-14T17:19:05.358Z,14.73
2018-12-14T17:21:35.119Z,15.17
2018-12-14T17:24:05.652Z,14.63
2018-12-14T17:26:36.055Z,15.57
2018-12-14T17:29:06.290Z,14.30
2018-12-14T17:31:36.377Z,14.13
2018-12-14T17:34:06.202Z,14.53
2018-12-14T17:36:36.198Z,14.40
2018-12-14T17:39:08.090Z,15.00
2018-12-14T17:41:38.226Z,15.17
2018-12-14T17:44:08.358Z,15.90
2018-12-14T17:46:39.490Z,15.57
2018-12-14T17:49:09.378Z,15.23
2018-12-14T17:51:39.378Z,14.63
2018-12-14T17:54:10.114Z,15.30
2018-12-14T17:56:40.861Z,15.93
2018-12-14T17:59:10.728Z,15.63
2018-12-14T18:01:40.831Z,15.50
2018-12-14T18:04:10.874Z,17.10
2018-12-14T18:06:41.050Z,15.83
2018-12-14T18:09:10.834Z,16.13
2018-12-14T18:11:40.953Z,16.00
2018-12-14T18:14:10.806Z,16.90
2018-12-14T18:16:41.465Z,16.43
2018-12-14T18:19:11.746Z,15.93
2018-12-14T18:21:41.573Z,16.10
2018-12-14T18:24:11.299Z,16.13
2018-12-14T18:26:41.648Z,14.20
2018-12-14T18:29:11.657Z,14.43
2018-12-14T18:31:41.461Z,16.00
2018-12-14T18:34:11.260Z,15.10
2018-12-14T18:36:41.470Z,15.73
2018-12-14T18:39:11.272Z,15.73
2018-12-14T18:41:41.468Z,15.90
2018-12-14T18:44:11.842Z,16.87
2018-12-14T18:46:42.577Z,16.37
2018-12-14T18:49:12.318Z,16.83
2018-12-14T18:51:42.489Z,15.13
2018-12-14T18:54:12.286Z,16.30
2018-12-14T18:56:42.373Z,16.67
2018-12-14T18:59:12.850Z,17.17
2018-12-14T19:01:43.180Z,15.87
2018-12-14T19:04:13.303Z,16.30
2018-12-14T19:08:12.897Z,16.60
2018-12-14T19:10:42.629Z,16.20
2018-12-14T19:13:12.644Z,16.10
2018-12-14T19:15:42.780Z,17.17
2018-12-14T19:18:12.902Z,16.50
2018-12-14T19:20:42.753Z,16.93
2018-12-14T19:23:12.543Z,17.67
2018-12-14T19:25:42.845Z,16.33
2018-12-14T19:28:12.789Z,16.40
2018-12-14T19:30:43.029Z,17.10
2018-12-14T19:33:13.073Z,16.23
2018-12-14T19:37:16.003Z,17.80
2018-12-14T19:39:46.641Z,17.17
2018-12-14T19:42:16.781Z,17.60
2018-12-14T19:44:46.554Z,16.13
2018-12-14T19:47:18.669Z,17.53
2018-12-14T19:49:48.862Z,16.97
2018-12-14T19:52:19.045Z,17.30
2018-12-14T19:54:48.884Z,16.67
2018-12-14T19:57:18.842Z,17.87
2018-12-14T19:59:48.725Z,17.93
2018-12-14T20:02:19.363Z,17.50
2018-12-14T20:04:49.325Z,16.73
2018-12-14T20:07:19.337Z,16.83
2018-12-14T20:09:49.511Z,17.13
2018-12-14T20:12:19.419Z,16.47
2018-12-14T20:14:49.415Z,17.17
2018-12-14T20:17:19.273Z,17.43
2018-12-14T20:19:49.853Z,19.20
2018-12-14T20:22:20.202Z,16.77
2018-12-14T20:24:50.874Z,18.20
2018-12-14T20:27:20.779Z,17.70
2018-12-14T20:29:50.661Z,18.13
2018-12-14T20:32:20.935Z,17.73
2018-12-14T20:34:50.869Z,18.47
2018-12-14T20:37:20.675Z,17.47
2018-12-14T20:39:51.480Z,17.97
2018-12-14T20:42:21.653Z,17.43
2018-12-14T20:44:51.699Z,18.10
2018-12-14T20:47:21.624Z,16.67
2018-12-14T20:49:51.482Z,17.90
2018-12-14T20:52:21.412Z,18.77
2018-12-14T20:54:51.282Z,17.07
2018-12-14T20:57:21.162Z,18.13
2018-12-14T20:59:51.035Z,17.97
2018-12-14T21:02:20.927Z,19.00
2018-12-14T21:04:50.714Z,19.40
2018-12-14T21:07:21.513Z,19.20
2018-12-14T21:09:51.417Z,18.80
2018-12-14T21:12:21.263Z,18.53
2018-12-14T21:14:51.730Z,17.87
2018-12-14T21:17:21.763Z,17.57
2018-12-14T21:19:51.573Z,16.03
2018-12-14T21:22:21.671Z,17.93
2018-12-14T21:24:51.455Z,17.17
2018-12-14T21:27:21.331Z,16.27
2018-12-14T21:29:51.617Z,17.07
2018-12-14T21:32:21.519Z,17.33
2018-12-14T21:34:51.419Z,16.80
2018-12-14T21:37:21.397Z,17.80
2018-12-14T21:39:51.384Z,17.80
2018-12-14T21:42:21.331Z,17.93
2018-12-14T21:44:51.209Z,18.80
2018-12-14T21:47:21.093Z,18.70
2018-12-14T21:49:50.979Z,17.53
2018-12-14T21:52:20.815Z,17.90
2018-12-14T21:54:50.703Z,17.17
2018-12-14T21:57:21.071Z,18.13
2018-12-14T21:59:51.081Z,18.47
2018-12-14T22:02:21.041Z,18.87
2018-12-14T22:04:50.898Z,18.10
2018-12-14T22:07:20.892Z,18.70
2018-12-14T22:09:50.839Z,17.90
2018-12-14T22:15:56.484Z,18.43
2018-12-14T22:18:26.510Z,17.70
2018-12-14T22:20:56.419Z,17.63
2018-12-14T22:23:26.263Z,17.27
2018-12-14T22:25:56.157Z,19.23
2018-12-14T22:28:26.231Z,18.43
2018-12-14T22:30:56.101Z,17.97
2018-12-14T22:33:25.960Z,16.67
2018-12-14T22:35:56.930Z,17.60
2018-12-14T22:38:27.213Z,17.47
2018-12-14T22:40:57.634Z,18.53
2018-12-14T22:43:27.583Z,18.67
2018-12-14T22:45:57.454Z,18.00
2018-12-14T22:48:27.388Z,18.47
2018-12-14T22:50:57.402Z,17.07
2018-12-14T22:57:03.560Z,17.93
2018-12-14T22:59:33.434Z,18.60
2018-12-14T23:02:03.304Z,17.60
2018-12-14T23:04:33.212Z,19.40
2018-12-14T23:07:03.128Z,18.63
2018-12-14T23:09:33.584Z,19.60
2018-12-14T23:12:03.549Z,18.83
2018-12-14T23:14:33.328Z,17.60
2018-12-14T23:17:03.126Z,18.83
2018-12-14T23:19:32.970Z,18.70
2018-12-14T23:22:02.914Z,18.87
2018-12-14T23:24:33.031Z,17.30
2018-12-14T23:27:02.808Z,18.47
2018-12-14T23:29:32.692Z,19.43
2018-12-14T23:32:02.876Z,18.70
2018-12-14T23:34:32.722Z,18.43
2018-12-14T23:37:02.588Z,19.27
2018-12-14T23:39:32.434Z,19.50
2018-12-14T23:42:02.285Z,19.53
2018-12-14T23:44:32.146Z,19.00
2018-12-14T23:47:02.030Z,19.67
2018-12-14T23:49:31.880Z,19.23
2018-12-14T23:52:01.807Z,18.80
2018-12-14T23:58:06.924Z,18.10
